createdAt,value
2022-11-21T00:03:02.257Z,0.40
2022-11-21T00:09:04.191Z,0.40
2022-11-21T00:15:06.787Z,0.40
2022-11-21T00:21:12.509Z,0.50
2022-11-21T00:27:14.456Z,0.50
2022-11-21T00:33:16.308Z,0.50
2022-11-21T00:39:18.161Z,0.50
2022-11-21T00:45:24.273Z,0.50
2022-11-21T00:51:26.779Z,0.50
2022-11-21T00:57:28.778Z,0.50
2022-11-21T01:03:32.976Z,0.50
2022-11-21T01:09:34.863Z,0.60
2022-11-21T01:15:36.796Z,0.50
2022-11-21T01:21:38.723Z,0.40
2022-11-21T01:27:40.603Z,0.40
2022-11-21T01:33:42.828Z,0.30
2022-11-21T01:39:44.920Z,0.30
2022-11-21T01:46:09.700Z,0.40
2022-11-21T01:52:27.022Z,0.30
2022-11-21T01:58:31.163Z,0.30
2022-11-21T02:04:35.165Z,0.30
2022-11-21T02:10:38.627Z,0.20
2022-11-21T02:16:41.026Z,0.10
2022-11-21T02:22:54.938Z,0.20
2022-11-21T02:28:57.893Z,0.20
2022-11-21T02:34:59.871Z,0.20
2022-11-21T02:41:14.848Z,0.20
2022-11-21T02:47:16.812Z,0.20
2022-11-21T02:53:19.647Z,0.20
2022-11-21T02:59:21.576Z,0.20
2022-11-21T03:05:23.755Z,0.10
2022-11-21T03:11:25.619Z,0.00
2022-11-21T03:17:27.517Z,0.00
2022-11-21T03:23:29.396Z,0.00
2022-11-21T03:29:31.389Z,0.00
2022-11-21T03:35:33.345Z,-0.10
2022-11-21T03:41:35.450Z,0.00
2022-11-21T03:47:37.320Z,-0.10
2022-11-21T03:53:39.270Z,-0.10
2022-11-21T03:59:41.166Z,-0.10
2022-11-21T04:05:44.927Z,-0.10
2022-11-21T04:11:46.819Z,-0.10
2022-11-21T04:17:48.695Z,0.00
2022-11-21T04:23:50.574Z,0.00
2022-11-21T04:29:52.496Z,-0.10
2022-11-21T04:35:54.375Z,-0.10
2022-11-21T04:41:56.269Z,-0.10
2022-11-21T04:47:58.212Z,-0.20
2022-11-21T04:54:00.170Z,-0.10
2022-11-21T05:00:02.092Z,-0.20
2022-11-21T05:06:04.207Z,-0.30
2022-11-21T05:12:25.522Z,-0.30
2022-11-21T05:18:27.424Z,-0.40
2022-11-21T05:24:29.642Z,-0.40
2022-11-21T05:30:31.828Z,-0.40
2022-11-21T05:36:33.747Z,-0.40
2022-11-21T05:42:58.191Z,-0.40
2022-11-21T05:49:00.111Z,-0.50
2022-11-21T05:55:02.033Z,-0.50
2022-11-21T06:01:05.464Z,-0.50
2022-11-21T06:07:07.389Z,-0.40
2022-11-21T06:13:22.157Z,-0.40
2022-11-21T06:19:24.232Z,-0.40
2022-11-21T06:25:26.155Z,-0.50
2022-11-21T06:31:28.074Z,-0.50
2022-11-21T06:37:30.891Z,-0.50
2022-11-21T06:43:32.913Z,-0.40
2022-11-21T06:49:34.772Z,-0.30
2022-11-21T06:55:36.719Z,-0.30
2022-11-21T07:01:38.655Z,-0.30
2022-11-21T07:07:40.699Z,-0.20
2022-11-21T07:13:43.795Z,-0.10
2022-11-21T07:19:45.713Z,-0.10
2022-11-21T07:25:48.083Z,0.00
2022-11-21T07:31:49.937Z,0.10
2022-11-21T07:37:52.083Z,0.20
2022-11-21T07:43:53.968Z,0.10
2022-11-21T07:49:55.931Z,0.00
2022-11-21T07:55:59.853Z,0.10
2022-11-21T08:02:01.812Z,0.40
2022-11-21T08:08:04.111Z,0.60
2022-11-21T08:14:05.963Z,0.60
2022-11-21T08:20:08.790Z,0.70
2022-11-21T08:26:10.752Z,0.80
2022-11-21T08:32:12.636Z,0.90
2022-11-21T08:38:14.592Z,0.90
2022-11-21T08:44:16.598Z,1.00
2022-11-21T08:50:18.661Z,1.20
2022-11-21T08:56:20.828Z,1.10
2022-11-21T09:02:22.795Z,1.00
2022-11-21T09:08:24.795Z,1.20
2022-11-21T09:14:45.151Z,1.30
2022-11-21T09:20:47.041Z,1.60
2022-11-21T09:26:49.026Z,1.80
2022-11-21T09:32:50.936Z,1.90
2022-11-21T09:38:53.266Z,2.00
2022-11-21T09:45:09.568Z,2.30
2022-11-21T09:51:15.058Z,2.50
2022-11-21T09:57:21.741Z,2.70
2022-11-21T10:03:27.249Z,2.80
2022-11-21T10:09:50.772Z,2.80
2022-11-21T10:16:03.300Z,3.10
2022-11-21T10:22:40.952Z,3.00
2022-11-21T10:28:52.438Z,3.10
2022-11-21T10:35:24.133Z,3.20
2022-11-21T10:41:47.426Z,3.30
2022-11-21T10:47:51.656Z,3.30
2022-11-21T10:54:30.427Z,3.40
2022-11-21T11:00:32.694Z,3.30
2022-11-21T11:06:34.984Z,3.20
2022-11-21T11:12:55.292Z,3.30
2022-11-21T11:19:15.692Z,3.30
2022-11-21T11:25:17.587Z,3.40
2022-11-21T11:31:19.762Z,3.40
2022-11-21T11:37:41.630Z,3.40
2022-11-21T11:44:34.132Z,3.40
2022-11-21T11:50:46.209Z,3.60
2022-11-21T11:56:49.013Z,3.50
2022-11-21T12:03:16.975Z,3.50
2022-11-21T12:09:35.759Z,3.40
2022-11-21T12:15:49.574Z,3.40
2022-11-21T12:21:51.444Z,3.30
2022-11-21T12:27:56.196Z,3.20
2022-11-21T12:34:14.167Z,3.30
2022-11-21T12:40:35.499Z,3.50
2022-11-21T12:47:03.763Z,3.30
2022-11-21T12:53:40.611Z,3.20
2022-11-21T12:59:54.195Z,3.00
2022-11-21T13:05:58.609Z,3.00
2022-11-21T13:12:11.599Z,2.80
2022-11-21T13:18:23.135Z,2.60
2022-11-21T13:24:56.425Z,2.60
2022-11-21T13:31:01.059Z,2.60
2022-11-21T13:37:03.839Z,2.60
2022-11-21T13:43:35.523Z,2.40
2022-11-21T13:49:43.575Z,2.20
2022-11-21T13:56:06.181Z,1.70
2022-11-21T14:02:29.323Z,1.60
2022-11-21T14:08:31.674Z,1.60
2022-11-21T14:14:43.738Z,1.50
2022-11-21T14:20:56.501Z,1.60
2022-11-21T14:26:58.807Z,1.60
2022-11-21T14:33:35.544Z,1.60
2022-11-21T14:39:44.357Z,1.50
2022-11-21T14:45:50.256Z,1.40
2022-11-21T14:52:03.315Z,1.40
2022-11-21T14:58:06.505Z,1.40
2022-11-21T15:20:11.945Z,1.40
2022-11-21T15:26:35.671Z,1.30
2022-11-21T15:33:03.898Z,1.30
2022-11-21T15:39:07.101Z,1.20
2022-11-21T15:52:06.034Z,1.20
2022-11-21T15:57:12.888Z,1.20
2022-11-21T15:58:05.619Z,1.20
2022-11-21T16:04:10.861Z,1.10
2022-11-21T16:10:19.934Z,1.10
2022-11-21T16:16:28.989Z,1.00
2022-11-21T16:22:31.717Z,1.00
2022-11-21T16:28:43.468Z,1.00
2022-11-21T16:34:45.552Z,1.00
2022-11-21T16:41:04.420Z,1.00
2022-11-21T16:47:08.616Z,1.00
2022-11-21T16:53:10.655Z,1.10
2022-11-21T16:59:12.545Z,1.20
2022-11-21T17:05:14.466Z,1.20
2022-11-21T17:11:28.171Z,1.30
2022-11-21T17:17:29.972Z,1.40
2022-11-21T17:23:32.896Z,1.30
2022-11-21T17:29:34.771Z,1.40
2022-11-21T17:35:36.627Z,1.50
2022-11-21T17:41:39.663Z,1.50
2022-11-21T17:47:42.252Z,1.50
2022-11-21T17:53:47.146Z,1.50
2022-11-21T17:59:49.140Z,1.60
2022-11-21T18:06:07.515Z,1.60
2022-11-21T18:12:09.578Z,1.50
2022-11-21T18:18:11.520Z,1.50
2022-11-21T18:24:13.551Z,1.60
2022-11-21T18:30:15.503Z,1.60
2022-11-21T18:36:18.247Z,1.60
2022-11-21T18:42:20.081Z,1.60
2022-11-21T18:48:23.860Z,1.60
2022-11-21T18:54:25.746Z,1.50
2022-11-21T19:00:27.671Z,1.60
2022-11-21T19:06:30.108Z,1.60
2022-11-21T19:12:37.888Z,1.60
2022-11-21T19:18:44.393Z,1.60
2022-11-21T19:24:48.410Z,1.50
2022-11-21T19:30:50.230Z,1.50
2022-11-21T19:36:53.041Z,1.50
2022-11-21T19:42:54.887Z,1.50
2022-11-21T19:48:57.533Z,1.50
2022-11-21T19:54:59.384Z,1.50
2022-11-21T20:01:12.766Z,1.50
2022-11-21T20:07:14.795Z,1.50
2022-11-21T20:13:16.710Z,1.50
2022-11-21T20:19:20.587Z,1.50
2022-11-21T20:25:22.506Z,1.50
2022-11-21T20:31:29.472Z,1.50
2022-11-21T20:37:31.287Z,1.50
2022-11-21T20:44:14.514Z,1.50
2022-11-21T20:49:55.011Z,1.60
2022-11-21T20:56:10.205Z,1.70
2022-11-21T21:02:14.209Z,1.70
2022-11-21T21:08:16.344Z,1.70
2022-11-21T21:16:57.265Z,1.70
2022-11-21T21:21:17.036Z,1.70
2022-11-21T21:27:26.493Z,1.70
2022-11-21T21:33:29.418Z,1.70
2022-11-21T21:39:33.080Z,1.60
2022-11-21T21:45:34.928Z,1.70
2022-11-21T21:51:37.506Z,1.70
2022-11-21T21:57:44.943Z,1.70
2022-11-21T22:03:53.921Z,1.70
2022-11-21T22:09:57.875Z,1.70
2022-11-21T22:16:30.051Z,1.70
2022-11-21T22:22:46.917Z,1.60
2022-11-21T22:28:50.215Z,1.60
2022-11-21T22:34:52.075Z,1.50
2022-11-21T22:40:54.167Z,1.50
2022-11-21T22:46:56.046Z,1.50
2022-11-21T22:52:57.874Z,1.50
2022-11-21T22:58:59.751Z,1.50
2022-11-21T23:05:02.049Z,1.50
2022-11-21T23:11:05.328Z,1.40
2022-11-21T23:17:07.159Z,1.50
2022-11-21T23:23:08.981Z,1.50
2022-11-21T23:29:10.881Z,1.50
2022-11-21T23:35:12.769Z,1.50
2022-11-21T23:41:14.608Z,1.40
2022-11-21T23:47:16.448Z,1.40
2022-11-21T23:53:19.035Z,1.50
2022-11-21T23:59:20.860Z,1.50
